Time;durP1;ratioP1;P1;durP2;ratioP2;P2;SDS_P1;SDS_P2;PMS_P1;PMS_P2;Temp;Humidity;BMP_temperature;BMP_pressure;BME280_temperature;BME280_humidity;BME280_pressure;Samples;Min_cycle;Max_cycle;Signal;HPM_P1;HPM_P2
2022/06/09 00:01:27;;;;;;;16.10;6.63;;;;;;;13.15;100.00;100786.38;5015889;28;20032;-47
2022/06/09 00:04:00;;;;;;;24.80;6.43;;;;;;;13.14;100.00;100785.53;5015214;28;20065;-47
2022/06/09 00:06:34;;;;;;;20.27;6.38;;;;;;;13.15;100.00;100791.72;5006807;28;20683;-45
2022/06/09 00:09:02;;;;;;;25.70;6.97;;;;;;;13.11;100.00;100795.78;5015605;28;20152;-48
2022/06/09 00:11:28;;;;;;;26.13;6.43;;;;;;;13.11;100.00;100806.50;5016391;28;20087;-45
2022/06/09 00:13:53;;;;;;;30.25;5.95;;;;;;;13.10;100.00;100807.53;5014390;28;20669;-46
2022/06/09 00:16:19;;;;;;;21.27;6.28;;;;;;;13.08;100.00;100802.34;5013870;28;20072;-45
2022/06/09 00:18:45;;;;;;;29.92;6.53;;;;;;;13.11;100.00;100809.19;5016212;28;20041;-48
2022/06/09 00:21:11;;;;;;;26.63;6.13;;;;;;;13.09;100.00;100811.22;5015846;28;20053;-47
2022/06/09 00:23:37;;;;;;;24.00;6.35;;;;;;;13.08;100.00;100813.06;5015247;28;20025;-45
2022/06/09 00:26:02;;;;;;;26.92;6.90;;;;;;;13.09;100.00;100814.75;5009968;28;20041;-48
2022/06/09 00:28:28;;;;;;;24.75;6.25;;;;;;;13.07;100.00;100809.56;5015955;28;20045;-49
2022/06/09 00:30:53;;;;;;;31.10;6.57;;;;;;;13.06;100.00;100802.50;5014564;28;20101;-46
2022/06/09 00:33:19;;;;;;;32.05;6.20;;;;;;;13.03;100.00;100810.06;5015754;28;20029;-46
2022/06/09 00:35:44;;;;;;;27.85;6.00;;;;;;;12.99;100.00;100803.41;5014538;28;20056;-44
2022/06/09 00:38:11;;;;;;;26.85;6.22;;;;;;;12.97;100.00;100814.31;5010002;28;20417;-45
2022/06/09 00:40:37;;;;;;;25.13;6.38;;;;;;;12.93;100.00;100815.66;5017325;28;20032;-48
2022/06/09 00:43:04;;;;;;;24.02;6.65;;;;;;;12.90;100.00;100818.72;5011492;28;20544;-48
2022/06/09 00:45:36;;;;;;;25.30;6.57;;;;;;;12.85;100.00;100816.56;5016671;28;20084;-46
2022/06/09 00:48:25;;;;;;;24.63;6.38;;;;;;;12.82;100.00;100821.44;5018693;28;20025;-45
2022/06/09 00:50:57;;;;;;;38.40;6.78;;;;;;;12.79;100.00;100825.31;5007487;28;20043;-45
2022/06/09 00:53:28;;;;;;;40.70;6.55;;;;;;;12.75;100.00;100823.16;5020085;28;20388;-45
2022/06/09 00:55:55;;;;;;;;;;;;;;;12.75;100.00;100828.53;5019350;28;20026;-48
2022/06/09 00:58:24;;;;;;;32.20;6.18;;;;;;;12.71;100.00;100825.34;5013720;28;19920;-45
2022/06/09 01:01:12;;;;;;;31.55;6.85;;;;;;;12.67;100.00;100830.22;5010724;28;20021;-47
2022/06/09 01:03:45;;;;;;;34.58;7.28;;;;;;;12.67;100.00;100834.75;5019379;28;20029;-47
2022/06/09 01:06:17;;;;;;;30.45;6.50;;;;;;;12.68;100.00;100831.06;5019597;28;20053;-46
2022/06/09 01:08:49;;;;;;;26.35;6.32;;;;;;;12.66;100.00;100831.25;5016704;28;20033;-47
2022/06/09 01:11:14;;;;;;;30.20;6.63;;;;;;;12.64;100.00;100824.38;5016037;28;20030;-45
2022/06/09 01:13:40;;;;;;;32.47;6.75;;;;;;;12.61;100.00;100822.03;5020149;28;20026;-46
2022/06/09 01:16:15;;;;;;;30.55;6.97;;;;;;;12.60;100.00;100831.94;5017441;28;20057;-46
2022/06/09 01:18:58;;;;;;;37.42;7.32;;;;;;;12.57;100.00;100837.63;5013514;28;20029;-43
2022/06/09 01:21:26;;;;;;;31.80;7.93;;;;;;;12.54;100.00;100832.63;5019361;28;20032;-46
2022/06/09 01:24:29;;;;;;;33.83;6.95;;;;;;;12.54;100.00;100835.28;5019343;28;20036;-46
2022/06/09 01:27:10;;;;;;;38.53;7.80;;;;;;;12.52;100.00;100833.81;5019043;28;20025;-46
2022/06/09 01:29:55;;;;;;;33.58;7.45;;;;;;;12.53;100.00;100844.38;5018335;28;20493;-45
2022/06/09 01:32:27;;;;;;;42.97;8.35;;;;;;;12.52;100.00;100840.00;5017094;28;20503;-46
2022/06/09 01:35:14;;;;;;;36.00;8.68;;;;;;;12.53;100.00;100846.22;5016842;28;20053;-45
2022/06/09 01:37:47;;;;;;;33.55;7.68;;;;;;;12.56;100.00;100852.06;5019314;28;20075;-47
2022/06/09 01:40:16;;;;;;;34.30;8.07;;;;;;;12.53;100.00;100846.22;5019131;28;20036;-44
2022/06/09 01:43:08;;;;;;;45.50;8.15;;;;;;;12.58;100.00;100854.56;5011575;28;20535;-46
2022/06/09 01:46:00;;;;;;;44.17;8.70;;;;;;;12.57;100.00;100856.38;5013675;28;20662;-46
2022/06/09 01:48:28;;;;;;;37.88;8.60;;;;;;;12.57;100.00;100852.88;5018587;28;20075;-45
2022/06/09 01:51:08;;;;;;;30.83;8.00;;;;;;;12.57;100.00;100856.38;5018313;28;20117;-44
2022/06/09 01:53:37;;;;;;;45.43;8.97;;;;;;;12.50;100.00;100842.84;5018952;28;20632;-44
2022/06/09 01:56:26;;;;;;;39.92;8.70;;;;;;;12.56;100.00;100852.06;5018944;28;20264;-44
2022/06/09 01:59:01;;;;;;;42.55;8.35;;;;;;;12.56;100.00;100856.56;5017936;28;20141;-46
2022/06/09 02:01:31;;;;;;;33.55;8.40;;;;;;;12.53;100.00;100851.56;5017012;28;20017;-44
2022/06/09 02:04:01;;;;;;;35.28;8.98;;;;;;;12.49;100.00;100856.41;5012445;28;20098;-45
2022/06/09 02:06:27;;;;;;;39.17;8.85;;;;;;;12.47;100.00;100859.28;5018211;28;20052;-47
2022/06/09 02:08:53;;;;;;;34.85;8.88;;;;;;;12.46;100.00;100868.31;5018142;28;20037;-45
2022/06/09 02:11:19;;;;;;;37.65;8.98;;;;;;;12.45;100.00;100861.28;5018573;28;20021;-45
2022/06/09 02:13:50;;;;;;;41.47;9.57;;;;;;;12.46;100.00;100867.50;5011426;28;20140;-46
2022/06/09 02:16:21;;;;;;;44.53;9.75;;;;;;;12.45;100.00;100865.81;5018436;28;20056;-48
2022/06/09 02:18:48;;;;;;;;;;;;;;;12.49;100.00;100870.66;5018697;28;20322;-46
2022/06/09 02:21:22;;;;;;;34.65;8.73;;;;;;;12.51;100.00;100878.53;5017440;28;19948;-46
2022/06/09 02:23:48;;;;;;;35.28;8.73;;;;;;;12.49;100.00;100873.34;5021759;28;20115;-46
2022/06/09 02:26:14;;;;;;;45.88;9.43;;;;;;;12.51;100.00;100878.53;5039306;28;20048;-43
2022/06/09 02:28:40;;;;;;;39.60;9.23;;;;;;;12.52;100.00;100874.81;5037305;28;20045;-45
2022/06/09 02:31:05;;;;;;;45.20;9.00;;;;;;;12.52;100.00;100882.88;5037351;28;20458;-46
2022/06/09 02:33:31;;;;;;;52.58;10.27;;;;;;;12.54;100.00;100896.91;5037913;28;20032;-45
2022/06/09 02:35:56;;;;;;;44.10;9.43;;;;;;;12.53;100.00;100884.53;5037748;28;20476;-44
2022/06/09 02:38:22;;;;;;;39.42;8.93;;;;;;;12.55;100.00;100892.41;5013565;28;20028;-46
2022/06/09 02:40:48;;;;;;;35.97;8.98;;;;;;;12.56;100.00;100889.56;5024297;28;20016;-44
2022/06/09 02:43:14;;;;;;;47.72;10.50;;;;;;;12.55;100.00;100892.41;5037918;28;20025;-44
2022/06/09 02:45:41;;;;;;;46.60;10.27;;;;;;;12.56;100.00;100902.09;5037121;28;20021;-44
2022/06/09 02:48:07;;;;;;;35.95;9.90;;;;;;;12.54;100.00;100896.09;5012967;28;20025;-45
2022/06/09 02:50:33;;;;;;;41.42;9.80;;;;;;;12.55;100.00;100900.44;5015567;28;20037;-48
2022/06/09 02:53:00;;;;;;;52.60;9.38;;;;;;;12.57;100.00;100901.09;5017770;28;20025;-45
2022/06/09 02:55:26;;;;;;;38.40;9.43;;;;;;;12.57;100.00;100907.28;5037462;28;20036;-45
2022/06/09 02:57:52;;;;;;;46.85;10.13;;;;;;;12.59;100.00;100907.97;5037778;28;20388;-46
2022/06/09 03:00:18;;;;;;;37.88;9.30;;;;;;;12.60;100.00;100903.44;5036381;28;20038;-44
2022/06/09 03:02:50;;;;;;;41.78;9.77;;;;;;;12.60;100.00;100903.44;5037032;28;20349;-46
2022/06/09 03:05:16;;;;;;;47.05;10.20;;;;;;;12.58;100.00;100908.97;5037541;28;20025;-45
2022/06/09 03:07:41;;;;;;;46.25;10.60;;;;;;;12.60;100.00;100924.88;5035867;28;20491;-46
2022/06/09 03:10:07;;;;;;;44.67;10.63;;;;;;;12.59;100.00;100916.00;5036950;28;20033;-48
2022/06/09 03:12:32;;;;;;;44.63;9.20;;;;;;;12.59;100.00;100917.84;5006435;28;20080;-44
2022/06/09 03:14:58;;;;;;;42.97;10.02;;;;;;;12.60;100.00;100924.88;5016194;28;20022;-47
2022/06/09 03:17:25;;;;;;;47.47;10.13;;;;;;;12.62;100.00;100926.38;5025812;28;20041;-44
2022/06/09 03:19:50;;;;;;;47.58;10.52;;;;;;;12.61;100.00;100930.06;5036869;28;20443;-46
2022/06/09 03:22:17;;;;;;;44.78;10.32;;;;;;;12.63;100.00;100936.09;5014241;28;20018;-44
2022/06/09 03:24:43;;;;;;;55.83;10.60;;;;;;;12.64;100.00;100939.59;5017468;28;20435;-43
2022/06/09 03:27:09;;;;;;;46.88;10.65;;;;;;;12.66;100.00;100948.28;5026272;28;20024;-45
2022/06/09 03:29:34;;;;;;;37.25;10.45;;;;;;;12.67;100.00;100950.78;5035563;28;20064;-47
2022/06/09 03:32:00;;;;;;;45.33;10.68;;;;;;;12.71;100.00;100961.19;5036248;28;20460;-44
2022/06/09 03:34:25;;;;;;;47.55;10.10;;;;;;;12.72;100.00;100958.31;5036829;28;20024;-44
2022/06/09 03:36:50;;;;;;;49.08;10.48;;;;;;;12.71;100.00;100964.69;5036916;28;20032;-45
2022/06/09 03:39:16;;;;;;;54.55;11.48;;;;;;;12.67;100.00;100969.56;5037304;28;20403;-45
2022/06/09 03:41:41;;;;;;;51.22;10.55;;;;;;;12.69;100.00;100978.28;5037042;28;20040;-45
2022/06/09 03:44:06;;;;;;;43.53;10.32;;;;;;;12.65;100.00;100965.38;5035343;28;20025;-47
2022/06/09 03:46:32;;;;;;;44.55;10.23;;;;;;;12.67;100.00;100968.72;5024884;28;20557;-46
2022/06/09 03:48:58;;;;;;;43.45;9.80;;;;;;;12.65;100.00;100978.78;5018662;28;20508;-44
2022/06/09 03:51:23;;;;;;;33.95;9.05;;;;;;;12.64;100.00;100971.75;5027163;28;20325;-45
2022/06/09 03:53:49;;;;;;;50.67;9.98;;;;;;;12.56;100.00;100969.94;5049178;28;20175;-49
2022/06/09 03:56:17;;;;;;;40.35;10.25;;;;;;;12.54;100.00;100982.66;5027565;28;20478;-45
2022/06/09 03:58:44;;;;;;;45.10;9.90;;;;;;;12.52;100.00;100991.88;5025071;28;20018;-45
2022/06/09 04:01:13;;;;;;;42.45;10.52;;;;;;;12.48;100.00;100997.56;5030184;28;20046;-46
2022/06/09 04:03:41;;;;;;;44.08;9.88;;;;;;;12.47;100.00;100998.59;5036303;28;20479;-46
2022/06/09 04:06:15;;;;;;;42.22;10.25;;;;;;;12.44;100.00;101000.75;5036494;28;20777;-50
2022/06/09 04:08:41;;;;;;;49.70;10.10;;;;;;;12.40;100.00;101002.94;5035330;28;20148;-47
2022/06/09 04:11:07;;;;;;;40.50;10.05;;;;;;;12.35;100.00;101010.63;5036566;28;20043;-47
2022/06/09 04:13:32;;;;;;;46.58;10.60;;;;;;;12.39;100.00;101011.13;5034599;28;20045;-46
2022/06/09 04:15:58;;;;;;;42.70;9.60;;;;;;;12.38;100.00;101015.66;5034610;28;20020;-45
2022/06/09 04:18:23;;;;;;;43.08;10.15;;;;;;;12.39;100.00;101014.66;5033766;28;20439;-43
2022/06/09 04:20:49;;;;;;;36.38;9.75;;;;;;;12.42;100.00;101016.16;5019128;28;20112;-45
2022/06/09 04:23:14;;;;;;;42.10;10.20;;;;;;;12.47;100.00;101021.84;5031642;28;20032;-44
2022/06/09 04:25:39;;;;;;;42.25;9.20;;;;;;;12.50;100.00;101019.66;5015031;28;20348;-45
2022/06/09 04:28:05;;;;;;;47.58;9.45;;;;;;;12.52;100.00;101022.16;5036293;28;20431;-46
2022/06/09 04:30:31;;;;;;;40.72;9.45;;;;;;;12.53;100.00;101025.72;5020268;28;20418;-45
2022/06/09 04:32:57;;;;;;;36.92;9.70;;;;;;;12.56;100.00;101033.38;5016160;28;20765;-45
2022/06/09 04:35:23;;;;;;;47.15;9.80;;;;;;;12.59;100.00;101031.22;5023341;28;20507;-44
2022/06/09 04:38:01;;;;;;;39.70;9.18;;;;;;;12.56;100.00;101031.56;5035947;28;20468;-42
2022/06/09 04:40:32;;;;;;;40.72;9.38;;;;;;;12.56;100.00;101034.25;5008190;28;20037;-46
2022/06/09 04:42:58;;;;;;;39.72;9.77;;;;;;;12.53;100.00;101031.88;5036018;28;20071;-46
2022/06/09 04:45:23;;;;;;;37.00;9.60;;;;;;;12.50;100.00;101032.22;5034843;28;20068;-46
2022/06/09 04:47:49;;;;;;;42.65;9.65;;;;;;;12.47;100.00;101041.44;5035938;28;20098;-46
2022/06/09 04:50:16;;;;;;;37.47;9.50;;;;;;;12.46;100.00;101036.25;5036588;28;20063;-44
2022/06/09 04:52:42;;;;;;;35.03;10.25;;;;;;;12.46;100.00;101050.47;5024137;28;20031;-45
2022/06/09 04:55:08;;;;;;;33.70;9.85;;;;;;;12.48;100.00;101056.50;5016409;28;20042;-47
2022/06/09 04:57:33;;;;;;;32.95;9.50;;;;;;;12.52;100.00;101064.22;5021194;28;20059;-50
2022/06/09 04:59:59;;;;;;;36.97;9.82;;;;;;;12.54;100.00;101064.88;5026846;28;20037;-44
2022/06/09 05:02:24;;;;;;;32.88;9.90;;;;;;;12.59;100.00;101066.06;5031218;28;20043;-48
2022/06/09 05:04:49;;;;;;;42.00;10.18;;;;;;;12.64;100.00;101069.06;5018842;28;20064;-44
2022/06/09 05:07:15;;;;;;;35.63;10.25;;;;;;;12.71;100.00;101071.88;5014388;28;20044;-44
2022/06/09 05:09:40;;;;;;;32.65;9.77;;;;;;;12.84;100.00;101072.19;5016052;28;20731;-47
2022/06/09 05:12:05;;;;;;;40.85;10.73;;;;;;;13.00;100.00;101078.53;5015593;28;20554;-43
2022/06/09 05:14:31;;;;;;;38.88;10.18;;;;;;;13.06;100.00;101088.56;5014927;28;20499;-45
2022/06/09 05:16:56;;;;;;;34.88;9.63;;;;;;;13.04;100.00;101095.97;5014406;28;20421;-44
2022/06/09 05:19:22;;;;;;;35.83;8.90;;;;;;;12.99;100.00;101098.31;5026442;28;20014;-44
2022/06/09 05:21:47;;;;;;;32.28;9.35;;;;;;;12.97;100.00;101098.50;5011192;28;20280;-46
2022/06/09 05:24:15;;;;;;;45.80;9.48;;;;;;;13.00;100.00;101103.50;5016908;28;20116;-45
2022/06/09 05:26:41;;;;;;;33.67;9.18;;;;;;;13.07;100.00;101106.34;5019724;28;20058;-46
2022/06/09 05:29:07;;;;;;;34.47;8.95;;;;;;;13.19;100.00;101104.97;5015479;28;20531;-48
2022/06/09 05:31:32;;;;;;;30.80;8.48;;;;;;;13.31;100.00;101110.81;5018857;28;20112;-44
2022/06/09 05:33:57;;;;;;;31.15;7.97;;;;;;;13.35;100.00;101114.84;5036406;28;20482;-46
2022/06/09 05:36:23;;;;;;;38.92;8.27;;;;;;;13.43;100.00;101114.81;5035826;28;20028;-48
2022/06/09 05:47:00;;;;;;;32.00;7.10;;;;;;;13.54;100.00;101132.41;5033560;28;20692;-45
2022/06/09 05:49:26;;;;;;;32.15;6.93;;;;;;;13.60;100.00;101133.53;5029385;28;20021;-45
2022/06/09 05:51:52;;;;;;;29.10;7.13;;;;;;;13.60;100.00;101133.53;5023436;28;20728;-47
2022/06/09 05:54:19;;;;;;;25.17;6.38;;;;;;;13.65;100.00;101146.44;5025826;28;20526;-50
2022/06/09 05:56:44;;;;;;;26.15;6.15;;;;;;;13.69;100.00;101153.13;5025175;28;20026;-44
2022/06/09 05:59:10;;;;;;;27.58;6.47;;;;;;;13.68;100.00;101154.97;5017703;28;20035;-45
2022/06/09 06:01:35;;;;;;;22.17;5.80;;;;;;;13.74;100.00;101153.44;5017732;28;20030;-47
2022/06/09 06:04:04;;;;;;;23.88;5.72;;;;;;;13.79;100.00;101159.94;5017920;28;20029;-48
2022/06/09 06:06:35;;;;;;;19.90;5.68;;;;;;;13.83;100.00;101170.34;5018723;28;20033;-46
2022/06/09 06:09:08;;;;;;;;;;;;;;;13.92;100.00;101167.47;5027043;28;20033;-45
2022/06/09 06:11:35;;;;;;;17.17;5.25;;;;;;;13.86;100.00;101170.00;5023261;28;20447;-45
2022/06/09 06:14:01;;;;;;;21.88;5.00;;;;;;;13.87;100.00;101175.19;5018845;28;20364;-45
2022/06/09 06:16:27;;;;;;;22.05;5.00;;;;;;;13.88;100.00;101181.41;5035581;28;20029;-46
2022/06/09 06:18:52;;;;;;;17.27;4.47;;;;;;;13.85;100.00;101182.59;5035335;28;20589;-47
2022/06/09 06:21:18;;;;;;;15.50;5.40;;;;;;;13.86;100.00;101191.47;5026753;28;20036;-45
2022/06/09 06:23:45;;;;;;;18.48;5.45;;;;;;;13.87;100.00;101194.00;5018538;28;20025;-44
2022/06/09 06:26:11;;;;;;;14.65;5.35;;;;;;;13.84;100.00;101196.19;5017246;28;20029;-46
2022/06/09 06:28:37;;;;;;;19.02;5.00;;;;;;;13.86;100.00;101197.69;5023427;28;20041;-48
2022/06/09 06:31:02;;;;;;;19.77;5.03;;;;;;;13.90;100.00;101200.84;5035371;28;20103;-46
2022/06/09 06:33:27;;;;;;;20.05;5.10;;;;;;;13.94;100.00;101207.56;5018327;28;20112;-47
2022/06/09 06:35:53;;;;;;;19.35;5.20;;;;;;;13.99;100.00;101215.94;5019398;28;20064;-47
2022/06/09 06:38:18;;;;;;;21.40;5.63;;;;;;;14.02;100.00;101222.78;5020414;28;20188;-44
2022/06/09 06:40:43;;;;;;;13.57;4.90;;;;;;;14.02;100.00;101222.78;5016972;28;20574;-44
2022/06/09 06:43:09;;;;;;;24.23;5.47;;;;;;;14.01;100.00;101227.31;5011065;28;20030;-45
2022/06/09 06:45:34;;;;;;;23.52;5.03;;;;;;;14.03;100.00;101238.72;5017254;28;20117;-46
2022/06/09 06:47:59;;;;;;;16.48;5.30;;;;;;;14.04;100.00;101239.59;5016325;28;20018;-43
2022/06/09 06:50:25;;;;;;;16.00;5.25;;;;;;;14.08;100.00;101244.41;5017645;28;20097;-44
2022/06/09 06:52:51;;;;;;;17.85;5.28;;;;;;;14.14;100.00;101248.28;5017849;28;20549;-47
2022/06/09 06:55:18;;;;;;;26.77;6.10;;;;;;;14.18;100.00;101255.78;5018988;28;20597;-46
2022/06/09 06:57:43;;;;;;;18.65;5.57;;;;;;;14.24;100.00;101253.41;5030233;28;20057;-44
2022/06/09 07:00:12;;;;;;;20.15;6.35;;;;;;;14.30;100.00;101263.47;5016529;28;20060;-44
2022/06/09 07:02:38;;;;;;;21.10;5.95;;;;;;;14.28;100.00;101263.63;5003610;28;20392;-46
2022/06/09 07:05:03;;;;;;;18.23;5.43;;;;;;;14.30;100.00;101272.34;5017413;28;20700;-46
2022/06/09 07:07:30;;;;;;;18.17;5.10;;;;;;;14.33;100.00;101265.81;5017440;28;20056;-44
2022/06/09 07:09:55;;;;;;;16.63;4.70;;;;;;;14.40;100.00;101272.13;5017615;28;20051;-46
2022/06/09 07:12:21;;;;;;;9.95;3.67;;;;;;;14.44;100.00;101265.38;5017334;28;20551;-44
2022/06/09 07:14:46;;;;;;;6.95;3.30;;;;;;;14.46;100.00;101276.81;5016306;28;20129;-62
2022/06/09 07:17:11;;;;;;;10.40;3.80;;;;;;;14.58;100.00;101279.94;5017232;28;20811;-45
2022/06/09 07:19:37;;;;;;;18.23;4.13;;;;;;;14.67;100.00;101283.47;5017537;28;20483;-44
2022/06/09 07:22:04;;;;;;;8.80;3.50;;;;;;;14.75;100.00;101288.78;5016763;28;20033;-50
2022/06/09 07:24:29;;;;;;;6.68;3.20;;;;;;;14.78;100.00;101299.16;5016318;28;20175;-46
2022/06/09 07:26:54;;;;;;;8.27;3.72;;;;;;;14.87;100.00;101295.41;5017407;28;20538;-44
2022/06/09 07:29:21;;;;;;;16.90;3.72;;;;;;;14.90;100.00;101297.75;5015567;28;20088;-44
2022/06/09 07:31:47;;;;;;;9.20;3.30;;;;;;;14.88;100.00;101291.72;5021866;28;20029;-44
2022/06/09 07:34:12;;;;;;;7.65;3.03;;;;;;;14.92;100.00;101293.03;5037624;28;20545;-47
2022/06/09 07:36:39;;;;;;;9.13;3.40;;;;;;;15.05;100.00;101299.66;5028356;28;20025;-46
2022/06/09 07:39:04;;;;;;;10.38;3.83;;;;;;;15.19;100.00;101292.66;5009929;28;20025;-47
2022/06/09 07:41:29;;;;;;;8.10;3.17;;;;;;;15.26;100.00;101294.47;5008775;28;20025;-44
2022/06/09 07:43:56;;;;;;;7.82;2.60;;;;;;;15.35;100.00;101292.53;5035388;28;20533;-46
2022/06/09 07:46:21;;;;;;;9.63;2.95;;;;;;;15.42;100.00;101296.16;5030863;28;20029;-47
2022/06/09 07:48:46;;;;;;;7.93;3.10;;;;;;;15.61;100.00;101294.84;5021961;28;20226;-43
2022/06/09 07:51:12;;;;;;;9.48;2.58;;;;;;;15.60;100.00;101293.16;5022930;28;20028;-47
2022/06/09 07:53:38;;;;;;;11.18;2.78;;;;;;;15.59;100.00;101296.84;5036120;28;20451;-47
2022/06/09 07:56:04;;;;;;;5.93;1.60;;;;;;;15.62;100.00;101296.47;5036745;28;20025;-44
2022/06/09 07:58:29;;;;;;;4.78;1.85;;;;;;;15.85;100.00;101301.00;5035668;28;20032;-45
2022/06/09 08:00:55;;;;;;;5.53;1.60;;;;;;;15.94;100.00;101301.75;5035920;28;20025;-44
2022/06/09 08:03:26;;;;;;;3.15;1.30;;;;;;;16.14;100.00;101302.88;5036388;28;20490;-48
2022/06/09 08:05:52;;;;;;;1.83;1.08;;;;;;;16.22;100.00;101301.91;5036309;28;20033;-45
2022/06/09 08:08:17;;;;;;;4.22;1.40;;;;;;;16.32;100.00;101298.94;5023713;28;20735;-45
2022/06/09 08:10:43;;;;;;;2.33;1.10;;;;;;;16.50;100.00;101312.88;5016142;28;20025;-45
2022/06/09 08:13:10;;;;;;;3.67;1.50;;;;;;;16.72;100.00;101323.69;5024573;28;20527;-47
2022/06/09 08:15:37;;;;;;;5.57;1.38;;;;;;;16.91;100.00;101323.09;5035859;28;20028;-46
2022/06/09 08:18:03;;;;;;;4.57;1.20;;;;;;;17.21;100.00;101322.16;5015744;28;20029;-44
2022/06/09 08:20:31;;;;;;;3.42;0.80;;;;;;;17.37;100.00;101334.56;5025158;28;20479;-45
2022/06/09 08:23:19;;;;;;;1.42;0.80;;;;;;;17.59;100.00;101333.50;5025071;28;20028;-46
2022/06/09 08:25:46;;;;;;;3.80;1.15;;;;;;;17.60;100.00;101347.81;5035412;28;20724;-45
2022/06/09 08:28:13;;;;;;;2.35;0.70;;;;;;;17.57;100.00;101353.66;5035455;28;20071;-45
2022/06/09 08:30:39;;;;;;;3.72;0.88;;;;;;;17.50;100.00;101364.38;5022157;28;20026;-48
2022/06/09 08:33:05;;;;;;;1.48;0.73;;;;;;;17.16;100.00;101363.22;5033889;28;20024;-45
2022/06/09 08:35:32;;;;;;;3.95;1.10;;;;;;;16.84;100.00;101373.47;5034839;28;20302;-47
2022/06/09 08:37:57;;;;;;;3.45;0.90;;;;;;;16.66;100.00;101384.63;5030908;28;20044;-45
2022/06/09 08:40:40;;;;;;;5.13;1.50;;;;;;;16.71;100.00;101382.19;5008494;28;20025;-47
2022/06/09 08:43:23;;;;;;;4.75;1.13;;;;;;;16.74;100.00;101378.28;5027088;28;20024;-45
2022/06/09 08:45:54;;;;;;;3.05;1.08;;;;;;;16.75;100.00;101404.22;5012411;28;20035;-45
2022/06/09 08:48:22;;;;;;;3.90;1.10;;;;;;;16.51;100.00;101400.81;5026836;28;20030;-47
2022/06/09 08:51:03;;;;;;;1.98;0.90;;;;;;;16.31;100.00;101407.78;5022079;28;20029;-46
2022/06/09 08:53:30;;;;;;;4.60;1.58;;;;;;;16.05;100.00;101414.44;5021801;28;20408;-44
2022/06/09 08:55:59;;;;;;;5.05;1.80;;;;;;;15.89;100.00;101406.53;5034939;28;20028;-46
2022/06/09 08:58:43;;;;;;;8.02;1.30;;;;;;;15.88;100.00;101418.31;5035326;28;20252;-46
2022/06/09 09:01:11;;;;;;;6.50;2.70;;;;;;;15.83;100.00;101413.47;5016324;28;20032;-47
2022/06/09 09:03:42;;;;;;;8.70;2.25;;;;;;;15.82;100.00;101417.19;5039096;28;20115;-45
2022/06/09 09:06:26;;;;;;;9.77;2.45;;;;;;;15.90;100.00;101416.28;5038132;28;20044;-47
2022/06/09 09:09:00;;;;;;;7.95;2.30;;;;;;;15.91;100.00;101423.34;5033705;28;20033;-46
2022/06/09 09:11:59;;;;;;;10.98;2.83;;;;;;;16.06;100.00;101426.06;5024381;28;20033;-48
2022/06/09 09:15:03;;;;;;;5.32;3.22;;;;;;;16.15;100.00;101427.66;5030325;28;20034;-49
2022/06/09 09:17:38;;;;;;;8.98;4.18;;;;;;;16.14;100.00;101425.97;4983303;28;20523;-46
2022/06/09 09:20:13;;;;;;;9.43;3.72;;;;;;;16.23;100.00;101428.41;5021446;28;20029;-48
2022/06/09 09:23:07;;;;;;;10.07;4.00;;;;;;;16.32;100.00;101429.16;5012726;28;20045;-45
2022/06/09 09:25:52;;;;;;;12.65;3.88;;;;;;;16.51;100.00;101437.72;5020561;28;20033;-45
2022/06/09 09:28:35;;;;;;;10.48;3.90;;;;;;;16.62;100.00;101439.13;5019837;28;20022;-45
2022/06/09 09:31:09;;;;;;;10.48;3.83;;;;;;;16.71;100.00;101441.53;5020118;28;20507;-48
2022/06/09 09:33:34;;;;;;;7.70;3.13;;;;;;;16.78;100.00;101441.63;5040047;28;20083;-47
2022/06/09 09:36:05;;;;;;;12.63;7.63;;;;;;;16.95;100.00;101440.44;5040093;28;20488;-49
2022/06/09 09:38:38;;;;;;;7.20;3.70;;;;;;;17.09;100.00;101446.81;5040818;28;20112;-47
2022/06/09 09:41:05;;;;;;;10.82;3.45;;;;;;;17.27;100.00;101445.56;5032078;28;20030;-47
2022/06/09 09:43:36;;;;;;;6.78;2.60;;;;;;;17.44;100.00;101452.38;5036762;28;20017;-46
2022/06/09 09:46:03;;;;;;;10.30;2.88;;;;;;;17.57;100.00;101449.00;5022650;28;20036;-45
2022/06/09 09:48:33;;;;;;;7.97;2.80;;;;;;;17.80;100.00;101447.94;5021086;28;20037;-45
2022/06/09 09:51:00;;;;;;;8.13;3.20;;;;;;;18.07;100.00;101455.31;5027340;28;20443;-47
2022/06/09 09:53:35;;;;;;;12.30;3.80;;;;;;;18.24;100.00;101460.41;5039102;28;20041;-50
2022/06/09 09:56:05;;;;;;;9.95;3.75;;;;;;;18.28;100.00;101456.28;5022368;28;20065;-49
2022/06/09 09:58:34;;;;;;;9.80;3.65;;;;;;;18.42;100.00;101462.63;5016506;28;20393;-47
2022/06/09 10:01:25;;;;;;;7.43;2.55;;;;;;;18.69;100.00;101466.31;5021986;28;20020;-47
2022/06/09 10:09:43;;;;;;;10.15;2.97;;;;;;;18.93;98.14;101470.41;5007746;28;20415;-47
2022/06/09 10:12:12;;;;;;;9.10;2.78;;;;;;;19.22;97.64;101476.56;5016815;28;20037;-45
2022/06/09 10:14:45;;;;;;;9.70;2.80;;;;;;;19.39;94.87;101475.16;5017470;28;20082;-49
2022/06/09 10:17:22;;;;;;;13.60;3.25;;;;;;;19.49;90.20;101468.53;5007784;28;20026;-48
2022/06/09 10:20:28;;;;;;;4.78;2.40;;;;;;;19.68;95.97;101467.72;5018676;28;20025;-46
2022/06/09 10:23:16;;;;;;;9.20;3.08;;;;;;;20.08;96.09;101470.50;5017266;28;20025;-47
2022/06/09 10:26:09;;;;;;;8.90;2.97;;;;;;;20.32;97.30;101479.03;5015822;28;20076;-46
2022/06/09 10:29:02;;;;;;;13.98;2.72;;;;;;;20.28;94.29;101481.34;5011680;28;20118;-44
2022/06/09 10:31:27;;;;;;;9.35;2.55;;;;;;;20.15;93.53;101475.09;5007631;28;20034;-45
2022/06/09 10:34:34;;;;;;;7.07;2.67;;;;;;;20.07;95.05;101476.13;5037851;28;20377;-44
2022/06/09 10:37:15;;;;;;;10.20;3.00;;;;;;;19.81;90.26;101485.91;5022821;28;20029;-47
2022/06/09 10:39:58;;;;;;;10.43;2.50;;;;;;;19.68;89.87;101486.69;5038143;28;20024;-47
2022/06/09 10:42:40;;;;;;;11.73;2.85;;;;;;;19.55;93.25;101487.50;5012864;28;20040;-45
2022/06/09 10:45:32;;;;;;;5.43;2.47;;;;;;;19.48;93.92;101480.41;5033291;28;20017;-43
2022/06/09 10:57:24;;;;;;;15.48;2.67;;;;;;;19.47;95.58;101500.41;5037689;28;20036;-45
2022/06/09 11:00:13;;;;;;;9.23;2.70;;;;;;;20.25;93.67;101510.75;5021047;28;20124;-48
2022/06/09 11:02:43;;;;;;;9.50;3.25;;;;;;;20.70;88.41;101502.78;5014433;28;20518;-47
2022/06/09 11:05:08;;;;;;;12.70;3.22;;;;;;;21.11;85.68;101506.22;5030677;28;20058;-46
2022/06/09 11:07:58;;;;;;;10.45;2.80;;;;;;;21.34;87.26;101509.25;5036933;28;20558;-46
2022/06/09 11:10:47;;;;;;;11.38;2.78;;;;;;;21.27;83.60;101507.63;5035206;28;20071;-47
2022/06/09 11:13:45;;;;;;;12.13;3.22;;;;;;;21.10;84.85;101508.09;5036314;28;20044;-48
2022/06/09 11:16:48;;;;;;;15.02;2.95;;;;;;;21.46;83.54;101528.41;5036883;28;20086;-46
2022/06/09 11:19:57;;;;;;;17.02;2.85;;;;;;;21.44;78.03;101535.97;5029654;28;20041;-47
2022/06/09 11:22:51;;;;;;;15.40;3.08;;;;;;;21.21;78.27;101528.31;4980614;28;20052;-47
2022/06/09 11:25:45;;;;;;;15.50;2.80;;;;;;;21.42;81.33;101528.00;5013506;28;20113;-44
2022/06/09 11:28:50;;;;;;;11.00;2.60;;;;;;;21.49;81.39;101529.91;5022256;28;20025;-44
2022/06/09 11:31:22;;;;;;;11.57;2.50;;;;;;;21.31;75.79;101525.97;4973228;28;20061;-44
2022/06/09 11:33:56;;;;;;;11.98;2.65;;;;;;;21.30;78.65;101528.91;5006564;28;20137;-44
2022/06/09 11:36:34;;;;;;;10.90;2.40;;;;;;;21.33;76.37;101528.47;5032917;28;20029;-45
2022/06/09 11:39:33;;;;;;;13.65;2.95;;;;;;;21.18;78.43;101537.75;5037833;28;20148;-47
2022/06/09 11:42:11;;;;;;;12.90;3.13;;;;;;;21.40;76.23;101532.84;5015333;28;20088;-47
2022/06/09 11:44:42;;;;;;;22.27;3.35;;;;;;;21.39;75.47;101541.22;5016416;28;20300;-44
2022/06/09 11:47:16;;;;;;;15.65;3.25;;;;;;;20.99;75.30;101538.63;5016425;28;20158;-46
2022/06/09 11:49:48;;;;;;;11.70;2.40;;;;;;;20.63;78.73;101540.78;5021003;28;20432;-46
2022/06/09 11:52:29;;;;;;;14.02;2.55;;;;;;;20.95;77.12;101538.22;5028583;28;20540;-44